sensor_id;sensor_type;location;lat;lon;timestamp;pressure;altitude;pressure_sealevel;temperature;humidity
65190;BME280;51777;53.570;9.984;2022-07-06T00:00:24;101906.25;;;15.49;72.92
65190;BME280;51777;53.570;9.984;2022-07-06T00:02:49;101909.25;;;15.54;72.72
65190;BME280;51777;53.570;9.984;2022-07-06T00:05:15;101909.41;;;15.53;72.29
65190;BME280;51777;53.570;9.984;2022-07-06T00:07:40;101911.03;;;15.54;72.51
65190;BME280;51777;53.570;9.984;2022-07-06T00:10:06;101919.53;;;15.56;72.49
65190;BME280;51777;53.570;9.984;2022-07-06T00:12:31;101922.25;;;15.37;72.89
65190;BME280;51777;53.570;9.984;2022-07-06T00:14:57;101914.84;;;15.42;73.03
65190;BME280;51777;53.570;9.984;2022-07-06T00:17:22;101916.16;;;15.46;72.58
65190;BME280;51777;53.570;9.984;2022-07-06T00:19:48;101922.19;;;15.46;72.58
65190;BME280;51777;53.570;9.984;2022-07-06T00:22:13;101921.22;;;15.47;72.44
65190;BME280;51777;53.570;9.984;2022-07-06T00:24:39;101911.09;;;15.44;72.54
65190;BME280;51777;53.570;9.984;2022-07-06T00:27:04;101920.09;;;15.32;73.79
65190;BME280;51777;53.570;9.984;2022-07-06T00:29:29;101918.91;;;15.26;75.05
65190;BME280;51777;53.570;9.984;2022-07-06T00:31:55;101919.41;;;15.12;76.20
65190;BME280;51777;53.570;9.984;2022-07-06T00:34:21;101920.09;;;15.14;76.19
65190;BME280;51777;53.570;9.984;2022-07-06T00:36:46;101915.00;;;15.13;76.26
65190;BME280;51777;53.570;9.984;2022-07-06T00:39:12;101912.66;;;15.19;76.58
65190;BME280;51777;53.570;9.984;2022-07-06T00:41:37;101917.41;;;15.24;76.49
65190;BME280;51777;53.570;9.984;2022-07-06T00:44:07;101914.59;;;15.17;76.51
65190;BME280;51777;53.570;9.984;2022-07-06T00:46:34;101915.69;;;15.15;76.63
65190;BME280;51777;53.570;9.984;2022-07-06T00:48:59;101909.78;;;15.13;76.94
65190;BME280;51777;53.570;9.984;2022-07-06T00:51:30;101914.88;;;15.14;76.46
65190;BME280;51777;53.570;9.984;2022-07-06T00:53:58;101911.88;;;15.09;76.57
65190;BME280;51777;53.570;9.984;2022-07-06T00:56:25;101917.50;;;15.14;76.51
65190;BME280;51777;53.570;9.984;2022-07-06T00:58:52;101911.31;;;15.15;75.59
65190;BME280;51777;53.570;9.984;2022-07-06T01:01:17;101915.34;;;15.00;76.37
65190;BME280;51777;53.570;9.984;2022-07-06T01:03:43;101911.03;;;14.91;76.87
65190;BME280;51777;53.570;9.984;2022-07-06T01:06:08;101916.91;;;14.93;76.55
65190;BME280;51777;53.570;9.984;2022-07-06T01:08:34;101919.16;;;15.06;76.56
65190;BME280;51777;53.570;9.984;2022-07-06T01:10:59;101917.34;;;15.16;76.04
65190;BME280;51777;53.570;9.984;2022-07-06T01:13:25;101914.78;;;15.06;76.42
65190;BME280;51777;53.570;9.984;2022-07-06T01:15:51;101917.53;;;15.05;76.84
65190;BME280;51777;53.570;9.984;2022-07-06T01:18:16;101911.22;;;15.07;76.66
65190;BME280;51777;53.570;9.984;2022-07-06T01:20:42;101916.13;;;15.10;76.59
65190;BME280;51777;53.570;9.984;2022-07-06T01:23:07;101916.41;;;15.07;76.70
65190;BME280;51777;53.570;9.984;2022-07-06T01:25:33;101912.53;;;15.11;76.83
65190;BME280;51777;53.570;9.984;2022-07-06T01:27:58;101917.28;;;14.98;77.40
65190;BME280;51777;53.570;9.984;2022-07-06T01:30:24;101914.00;;;14.96;77.59
65190;BME280;51777;53.570;9.984;2022-07-06T01:32:50;101912.38;;;14.95;77.54
65190;BME280;51777;53.570;9.984;2022-07-06T01:35:16;101910.72;;;14.94;77.86
65190;BME280;51777;53.570;9.984;2022-07-06T01:37:42;101908.56;;;14.89;77.54
65190;BME280;51777;53.570;9.984;2022-07-06T01:40:09;101907.75;;;14.89;77.89
65190;BME280;51777;53.570;9.984;2022-07-06T01:42:35;101902.25;;;14.92;77.46
65190;BME280;51777;53.570;9.984;2022-07-06T01:45:01;101903.28;;;14.99;77.78
65190;BME280;51777;53.570;9.984;2022-07-06T01:47:26;101901.38;;;15.01;76.92
65190;BME280;51777;53.570;9.984;2022-07-06T01:49:52;101900.53;;;15.01;76.67
65190;BME280;51777;53.570;9.984;2022-07-06T01:52:17;101891.78;;;15.02;76.48
65190;BME280;51777;53.570;9.984;2022-07-06T01:54:43;101895.22;;;15.02;76.43
65190;BME280;51777;53.570;9.984;2022-07-06T01:57:09;101896.41;;;15.08;75.80
65190;BME280;51777;53.570;9.984;2022-07-06T01:59:34;101894.63;;;15.08;75.41
65190;BME280;51777;53.570;9.984;2022-07-06T02:01:59;101900.78;;;15.07;75.57
65190;BME280;51777;53.570;9.984;2022-07-06T02:04:25;101901.75;;;15.06;75.37
65190;BME280;51777;53.570;9.984;2022-07-06T02:06:50;101906.00;;;15.07;75.49
65190;BME280;51777;53.570;9.984;2022-07-06T02:09:16;101901.59;;;15.08;75.22
65190;BME280;51777;53.570;9.984;2022-07-06T02:11:42;101898.63;;;15.03;75.41
65190;BME280;51777;53.570;9.984;2022-07-06T02:14:07;101898.09;;;14.99;75.45
65190;BME280;51777;53.570;9.984;2022-07-06T02:16:33;101900.28;;;15.04;75.41
65190;BME280;51777;53.570;9.984;2022-07-06T02:18:58;101905.69;;;15.10;75.07
65190;BME280;51777;53.570;9.984;2022-07-06T02:21:24;101909.94;;;15.11;75.04
65190;BME280;51777;53.570;9.984;2022-07-06T02:23:49;101912.28;;;15.14;74.84
65190;BME280;51777;53.570;9.984;2022-07-06T02:26:15;101908.69;;;15.15;74.66
65190;BME280;51777;53.570;9.984;2022-07-06T02:28:40;101916.06;;;15.20;74.49
65190;BME280;51777;53.570;9.984;2022-07-06T02:31:05;101915.63;;;15.24;74.35
65190;BME280;51777;53.570;9.984;2022-07-06T02:33:31;101915.50;;;15.26;74.27
65190;BME280;51777;53.570;9.984;2022-07-06T02:35:57;101915.50;;;15.26;74.18
65190;BME280;51777;53.570;9.984;2022-07-06T02:38:22;101917.28;;;15.25;74.38
65190;BME280;51777;53.570;9.984;2022-07-06T02:40:47;101920.72;;;15.26;74.53
65190;BME280;51777;53.570;9.984;2022-07-06T02:43:13;101912.75;;;15.27;75.82
65190;BME280;51777;53.570;9.984;2022-07-06T02:45:39;101910.72;;;15.21;76.46
65190;BME280;51777;53.570;9.984;2022-07-06T02:48:04;101906.78;;;15.17;78.15
65190;BME280;51777;53.570;9.984;2022-07-06T02:50:30;101906.66;;;15.09;78.42
65190;BME280;51777;53.570;9.984;2022-07-06T02:52:55;101902.72;;;15.05;78.61
65190;BME280;51777;53.570;9.984;2022-07-06T02:55:21;101898.09;;;14.99;79.50
65190;BME280;51777;53.570;9.984;2022-07-06T02:57:46;101898.69;;;14.93;79.04
65190;BME280;51777;53.570;9.984;2022-07-06T03:00:12;101896.28;;;14.82;79.52
65190;BME280;51777;53.570;9.984;2022-07-06T03:02:38;101895.59;;;14.80;81.31
65190;BME280;51777;53.570;9.984;2022-07-06T03:05:04;101896.31;;;14.72;80.86
65190;BME280;51777;53.570;9.984;2022-07-06T03:07:30;101900.69;;;14.72;81.38
65190;BME280;51777;53.570;9.984;2022-07-06T03:09:55;101906.34;;;14.67;81.66
65190;BME280;51777;53.570;9.984;2022-07-06T03:12:20;101903.44;;;14.70;81.64
65190;BME280;51777;53.570;9.984;2022-07-06T03:14:46;101907.47;;;14.64;81.21
65190;BME280;51777;53.570;9.984;2022-07-06T03:17:11;101908.44;;;14.63;82.05
65190;BME280;51777;53.570;9.984;2022-07-06T03:19:37;101908.53;;;14.62;81.39
65190;BME280;51777;53.570;9.984;2022-07-06T03:22:02;101912.06;;;14.71;82.57
65190;BME280;51777;53.570;9.984;2022-07-06T03:24:28;101915.63;;;14.79;81.99
65190;BME280;51777;53.570;9.984;2022-07-06T03:26:53;101915.34;;;14.73;81.12
65190;BME280;51777;53.570;9.984;2022-07-06T03:29:19;101918.44;;;14.58;81.62
65190;BME280;51777;53.570;9.984;2022-07-06T03:31:46;101919.69;;;14.54;81.97
65190;BME280;51777;53.570;9.984;2022-07-06T03:34:11;101912.56;;;14.56;82.40
65190;BME280;51777;53.570;9.984;2022-07-06T03:36:37;101916.94;;;14.56;82.06
65190;BME280;51777;53.570;9.984;2022-07-06T03:39:03;101919.00;;;14.43;82.30
65190;BME280;51777;53.570;9.984;2022-07-06T03:41:28;101915.31;;;14.45;83.15
65190;BME280;51777;53.570;9.984;2022-07-06T03:43:54;101921.88;;;14.49;83.65
65190;BME280;51777;53.570;9.984;2022-07-06T03:46:19;101914.34;;;14.56;83.71
65190;BME280;51777;53.570;9.984;2022-07-06T03:48:45;101915.44;;;14.53;84.14
65190;BME280;51777;53.570;9.984;2022-07-06T03:51:10;101914.78;;;14.51;83.92
65190;BME280;51777;53.570;9.984;2022-07-06T03:53:36;101914.47;;;14.54;84.56
65190;BME280;51777;53.570;9.984;2022-07-06T03:56:02;101916.78;;;14.57;83.94
65190;BME280;51777;53.570;9.984;2022-07-06T03:58:46;101916.94;;;14.56;82.60
65190;BME280;51777;53.570;9.984;2022-07-06T04:01:11;101922.44;;;14.53;82.60
65190;BME280;51777;53.570;9.984;2022-07-06T04:03:37;101928.97;;;14.57;82.89
65190;BME280;51777;53.570;9.984;2022-07-06T04:06:02;101931.06;;;14.53;82.78
65190;BME280;51777;53.570;9.984;2022-07-06T04:08:28;101938.59;;;14.47;83.72
65190;BME280;51777;53.570;9.984;2022-07-06T04:10:53;101932.47;;;14.28;83.91
65190;BME280;51777;53.570;9.984;2022-07-06T04:13:19;101932.03;;;14.33;84.65
65190;BME280;51777;53.570;9.984;2022-07-06T04:15:44;101928.88;;;14.39;84.34
65190;BME280;51777;53.570;9.984;2022-07-06T04:18:10;101920.25;;;14.48;83.59
65190;BME280;51777;53.570;9.984;2022-07-06T04:20:35;101916.13;;;14.36;81.77
65190;BME280;51777;53.570;9.984;2022-07-06T04:23:01;101923.50;;;14.50;82.30
65190;BME280;51777;53.570;9.984;2022-07-06T04:25:26;101919.69;;;14.54;80.50
65190;BME280;51777;53.570;9.984;2022-07-06T04:27:52;101920.22;;;14.58;80.97
65190;BME280;51777;53.570;9.984;2022-07-06T04:30:17;101920.19;;;14.67;80.31
65190;BME280;51777;53.570;9.984;2022-07-06T04:32:42;101918.25;;;14.69;79.52
65190;BME280;51777;53.570;9.984;2022-07-06T04:35:08;101912.75;;;14.73;80.06
65190;BME280;51777;53.570;9.984;2022-07-06T04:37:34;101912.66;;;14.64;80.50
65190;BME280;51777;53.570;9.984;2022-07-06T04:39:59;101914.38;;;14.74;80.58
65190;BME280;51777;53.570;9.984;2022-07-06T04:42:25;101913.53;;;14.83;80.11
65190;BME280;51777;53.570;9.984;2022-07-06T04:44:50;101916.28;;;14.81;80.40
65190;BME280;51777;53.570;9.984;2022-07-06T04:47:17;101920.81;;;14.79;80.38
65190;BME280;51777;53.570;9.984;2022-07-06T04:49:42;101912.66;;;14.92;80.03
65190;BME280;51777;53.570;9.984;2022-07-06T04:52:07;101914.00;;;14.96;78.99
65190;BME280;51777;53.570;9.984;2022-07-06T04:54:33;101918.25;;;14.97;78.92
65190;BME280;51777;53.570;9.984;2022-07-06T04:56:58;101921.34;;;15.10;78.37
65190;BME280;51777;53.570;9.984;2022-07-06T04:59:24;101911.22;;;15.07;78.03
65190;BME280;51777;53.570;9.984;2022-07-06T05:01:49;101909.13;;;15.11;78.10
65190;BME280;51777;53.570;9.984;2022-07-06T05:04:15;101922.41;;;15.17;77.49
65190;BME280;51777;53.570;9.984;2022-07-06T05:06:43;101926.84;;;15.07;77.86
65190;BME280;51777;53.570;9.984;2022-07-06T05:09:09;101923.38;;;15.16;78.16
65190;BME280;51777;53.570;9.984;2022-07-06T05:11:34;101923.22;;;15.18;78.30
65190;BME280;51777;53.570;9.984;2022-07-06T05:14:01;101924.50;;;15.32;77.98
65190;BME280;51777;53.570;9.984;2022-07-06T05:16:26;101931.59;;;15.39;77.70
65190;BME280;51777;53.570;9.984;2022-07-06T05:18:52;101919.59;;;15.46;77.56
65190;BME280;51777;53.570;9.984;2022-07-06T05:21:17;101928.63;;;15.52;76.96
65190;BME280;51777;53.570;9.984;2022-07-06T05:23:43;101923.91;;;15.55;76.44
65190;BME280;51777;53.570;9.984;2022-07-06T05:26:08;101926.91;;;15.43;76.79
65190;BME280;51777;53.570;9.984;2022-07-06T05:28:33;101928.38;;;15.45;76.31
65190;BME280;51777;53.570;9.984;2022-07-06T05:30:59;101927.09;;;15.32;77.20
65190;BME280;51777;53.570;9.984;2022-07-06T05:33:27;101927.94;;;15.32;77.45
65190;BME280;51777;53.570;9.984;2022-07-06T05:35:52;101925.25;;;15.42;77.42
65190;BME280;51777;53.570;9.984;2022-07-06T05:38:18;101926.38;;;15.39;77.38
65190;BME280;51777;53.570;9.984;2022-07-06T05:40:44;101924.00;;;15.46;77.52
65190;BME280;51777;53.570;9.984;2022-07-06T05:43:09;101928.13;;;15.66;77.10
65190;BME280;51777;53.570;9.984;2022-07-06T05:45:35;101935.78;;;15.68;74.77
65190;BME280;51777;53.570;9.984;2022-07-06T05:48:01;101936.91;;;15.65;75.39
65190;BME280;51777;53.570;9.984;2022-07-06T05:50:45;101938.19;;;15.79;75.70
65190;BME280;51777;53.570;9.984;2022-07-06T05:53:11;101938.75;;;15.91;74.43
65190;BME280;51777;53.570;9.984;2022-07-06T05:55:36;101943.16;;;15.72;74.42
65190;BME280;51777;53.570;9.984;2022-07-06T05:58:02;101938.91;;;15.71;74.40
65190;BME280;51777;53.570;9.984;2022-07-06T06:00:37;101931.41;;;15.68;74.62
65190;BME280;51777;53.570;9.984;2022-07-06T06:03:03;101939.31;;;15.76;74.31
65190;BME280;51777;53.570;9.984;2022-07-06T06:05:28;101943.25;;;15.63;74.20
65190;BME280;51777;53.570;9.984;2022-07-06T06:07:54;101944.63;;;15.39;75.47
65190;BME280;51777;53.570;9.984;2022-07-06T06:10:20;101955.16;;;15.38;76.10
65190;BME280;51777;53.570;9.984;2022-07-06T06:12:50;101950.56;;;15.49;76.03
65190;BME280;51777;53.570;9.984;2022-07-06T06:15:15;101957.38;;;15.60;76.59
65190;BME280;51777;53.570;9.984;2022-07-06T06:17:41;101959.72;;;15.63;75.65
65190;BME280;51777;53.570;9.984;2022-07-06T06:20:09;101951.75;;;15.65;76.25
65190;BME280;51777;53.570;9.984;2022-07-06T06:23:07;101961.38;;;15.54;77.09
65190;BME280;51777;53.570;9.984;2022-07-06T06:25:35;101960.56;;;15.54;77.27
65190;BME280;51777;53.570;9.984;2022-07-06T06:28:03;101958.75;;;15.64;78.43
65190;BME280;51777;53.570;9.984;2022-07-06T06:30:29;101953.22;;;15.67;76.80
65190;BME280;51777;53.570;9.984;2022-07-06T06:33:24;101954.97;;;15.49;73.62
65190;BME280;51777;53.570;9.984;2022-07-06T06:35:51;101954.19;;;15.66;74.16
65190;BME280;51777;53.570;9.984;2022-07-06T06:38:19;101966.09;;;15.86;73.79
65190;BME280;51777;53.570;9.984;2022-07-06T06:40:45;101959.09;;;16.05;73.23
65190;BME280;51777;53.570;9.984;2022-07-06T06:43:11;101957.56;;;16.20;72.94
65190;BME280;51777;53.570;9.984;2022-07-06T06:45:36;101965.16;;;16.31;72.39
65190;BME280;51777;53.570;9.984;2022-07-06T06:48:02;101967.56;;;16.25;72.41
65190;BME280;51777;53.570;9.984;2022-07-06T06:50:28;101966.47;;;16.35;72.90
65190;BME280;51777;53.570;9.984;2022-07-06T06:52:53;101969.22;;;16.52;71.77
65190;BME280;51777;53.570;9.984;2022-07-06T06:55:19;101971.78;;;16.69;71.81
65190;BME280;51777;53.570;9.984;2022-07-06T06:57:45;101969.41;;;16.84;71.17
65190;BME280;51777;53.570;9.984;2022-07-06T07:00:11;101973.19;;;16.90;71.07
65190;BME280;51777;53.570;9.984;2022-07-06T07:02:37;101978.63;;;17.05;71.71
65190;BME280;51777;53.570;9.984;2022-07-06T07:05:04;101976.34;;;17.10;70.84
65190;BME280;51777;53.570;9.984;2022-07-06T07:07:30;101981.28;;;17.13;71.00
65190;BME280;51777;53.570;9.984;2022-07-06T07:09:56;101979.00;;;17.18;71.28
65190;BME280;51777;53.570;9.984;2022-07-06T07:12:22;101987.56;;;17.36;70.74
65190;BME280;51777;53.570;9.984;2022-07-06T07:14:47;101984.63;;;17.47;69.36
65190;BME280;51777;53.570;9.984;2022-07-06T07:17:13;101986.31;;;17.65;69.01
65190;BME280;51777;53.570;9.984;2022-07-06T07:19:39;101988.34;;;17.87;68.43
65190;BME280;51777;53.570;9.984;2022-07-06T07:22:05;101981.94;;;17.98;67.53
65190;BME280;51777;53.570;9.984;2022-07-06T07:24:30;101985.22;;;18.16;68.06
65190;BME280;51777;53.570;9.984;2022-07-06T07:26:56;101987.69;;;18.09;67.03
65190;BME280;51777;53.570;9.984;2022-07-06T07:29:22;101998.97;;;17.94;66.88
65190;BME280;51777;53.570;9.984;2022-07-06T07:31:49;101995.69;;;17.75;67.82
65190;BME280;51777;53.570;9.984;2022-07-06T07:34:15;102007.38;;;17.55;65.59
65190;BME280;51777;53.570;9.984;2022-07-06T07:36:41;101994.38;;;17.13;67.16
65190;BME280;51777;53.570;9.984;2022-07-06T07:39:06;102001.50;;;17.02;67.78
65190;BME280;51777;53.570;9.984;2022-07-06T07:41:32;102006.69;;;16.94;68.10
65190;BME280;51777;53.570;9.984;2022-07-06T07:44:09;102007.97;;;16.90;67.86
65190;BME280;51777;53.570;9.984;2022-07-06T07:46:36;102004.16;;;16.85;67.44
65190;BME280;51777;53.570;9.984;2022-07-06T07:49:02;102006.59;;;16.78;67.21
65190;BME280;51777;53.570;9.984;2022-07-06T07:51:28;102016.56;;;16.75;66.29
65190;BME280;51777;53.570;9.984;2022-07-06T07:53:55;102007.53;;;16.69;66.01
65190;BME280;51777;53.570;9.984;2022-07-06T07:56:42;102016.19;;;16.69;66.96
65190;BME280;51777;53.570;9.984;2022-07-06T07:59:08;102010.69;;;16.81;68.13
65190;BME280;51777;53.570;9.984;2022-07-06T08:01:33;102008.91;;;16.81;68.59
65190;BME280;51777;53.570;9.984;2022-07-06T08:03:59;102007.25;;;16.80;70.01
65190;BME280;51777;53.570;9.984;2022-07-06T08:06:25;101998.09;;;16.76;69.70
65190;BME280;51777;53.570;9.984;2022-07-06T08:09:01;102011.44;;;16.99;69.53
65190;BME280;51777;53.570;9.984;2022-07-06T08:11:29;102008.78;;;17.33;68.17
65190;BME280;51777;53.570;9.984;2022-07-06T08:13:55;102015.00;;;17.90;67.05
65190;BME280;51777;53.570;9.984;2022-07-06T08:16:20;102012.72;;;17.87;63.64
65190;BME280;51777;53.570;9.984;2022-07-06T08:18:46;102014.25;;;17.56;65.46
65190;BME280;51777;53.570;9.984;2022-07-06T08:21:11;102015.69;;;17.42;66.37
65190;BME280;51777;53.570;9.984;2022-07-06T08:23:37;102020.22;;;17.24;66.82
65190;BME280;51777;53.570;9.984;2022-07-06T08:26:02;102022.34;;;16.94;68.00
65190;BME280;51777;53.570;9.984;2022-07-06T08:28:29;102021.56;;;16.68;69.15
65190;BME280;51777;53.570;9.984;2022-07-06T08:31:02;102023.41;;;16.58;70.11
65190;BME280;51777;53.570;9.984;2022-07-06T08:33:28;102025.06;;;16.59;71.68
65190;BME280;51777;53.570;9.984;2022-07-06T08:35:54;102009.38;;;16.59;72.32
65190;BME280;51777;53.570;9.984;2022-07-06T08:38:20;102024.16;;;16.68;72.50
65190;BME280;51777;53.570;9.984;2022-07-06T08:40:51;102017.00;;;16.70;71.35
65190;BME280;51777;53.570;9.984;2022-07-06T08:43:19;102011.81;;;16.78;71.37
65190;BME280;51777;53.570;9.984;2022-07-06T08:45:49;102012.28;;;16.99;71.27
65190;BME280;51777;53.570;9.984;2022-07-06T08:48:15;102013.31;;;17.23;70.69
65190;BME280;51777;53.570;9.984;2022-07-06T08:50:41;102019.97;;;17.51;69.32
65190;BME280;51777;53.570;9.984;2022-07-06T08:53:10;102024.47;;;17.75;67.48
65190;BME280;51777;53.570;9.984;2022-07-06T08:56:06;102017.44;;;18.08;66.49
65190;BME280;51777;53.570;9.984;2022-07-06T08:59:24;102030.38;;;18.42;66.10
65190;BME280;51777;53.570;9.984;2022-07-06T09:01:55;102034.16;;;18.64;65.34
65190;BME280;51777;53.570;9.984;2022-07-06T09:04:36;102025.59;;;18.78;64.32
65190;BME280;51777;53.570;9.984;2022-07-06T09:07:28;102039.72;;;19.17;63.18
65190;BME280;51777;53.570;9.984;2022-07-06T09:09:54;102045.50;;;19.43;62.30
65190;BME280;51777;53.570;9.984;2022-07-06T09:12:20;102044.50;;;19.44;60.85
65190;BME280;51777;53.570;9.984;2022-07-06T09:14:46;102043.13;;;18.78;62.88
65190;BME280;51777;53.570;9.984;2022-07-06T09:17:16;102027.72;;;18.59;63.78
65190;BME280;51777;53.570;9.984;2022-07-06T09:19:41;102027.28;;;18.14;63.48
65190;BME280;51777;53.570;9.984;2022-07-06T09:22:24;102039.56;;;18.14;64.61
65190;BME280;51777;53.570;9.984;2022-07-06T09:24:50;102032.69;;;18.29;63.80
65190;BME280;51777;53.570;9.984;2022-07-06T09:27:16;102032.19;;;18.26;63.38
65190;BME280;51777;53.570;9.984;2022-07-06T09:29:45;102039.22;;;18.33;62.65
65190;BME280;51777;53.570;9.984;2022-07-06T09:32:10;102037.91;;;18.45;63.98
65190;BME280;51777;53.570;9.984;2022-07-06T09:34:46;102052.78;;;18.77;61.44
65190;BME280;51777;53.570;9.984;2022-07-06T09:37:12;102043.97;;;19.26;59.86
65190;BME280;51777;53.570;9.984;2022-07-06T09:39:43;102049.56;;;19.54;58.51
65190;BME280;51777;53.570;9.984;2022-07-06T09:42:13;102034.50;;;20.02;57.13
65190;BME280;51777;53.570;9.984;2022-07-06T09:44:48;102039.81;;;20.16;56.38
65190;BME280;51777;53.570;9.984;2022-07-06T09:47:14;102036.03;;;20.34;56.12
65190;BME280;51777;53.570;9.984;2022-07-06T09:49:40;102040.38;;;20.49;52.98
65190;BME280;51777;53.570;9.984;2022-07-06T09:52:08;102037.34;;;20.38;53.84
65190;BME280;51777;53.570;9.984;2022-07-06T09:54:34;102042.06;;;20.42;54.43
65190;BME280;51777;53.570;9.984;2022-07-06T09:57:01;102039.94;;;20.75;53.12
65190;BME280;51777;53.570;9.984;2022-07-06T09:59:29;102041.56;;;21.06;51.14
65190;BME280;51777;53.570;9.984;2022-07-06T10:02:00;102040.28;;;21.46;48.35
65190;BME280;51777;53.570;9.984;2022-07-06T10:04:26;102041.16;;;22.11;46.96
65190;BME280;51777;53.570;9.984;2022-07-06T10:06:53;102040.31;;;22.60;44.73
65190;BME280;51777;53.570;9.984;2022-07-06T10:09:20;102046.25;;;23.03;44.34
65190;BME280;51777;53.570;9.984;2022-07-06T10:11:54;102039.22;;;23.23;43.51
65190;BME280;51777;53.570;9.984;2022-07-06T10:14:24;102041.13;;;22.60;43.62
65190;BME280;51777;53.570;9.984;2022-07-06T10:16:51;102036.97;;;21.80;45.87
65190;BME280;51777;53.570;9.984;2022-07-06T10:19:18;102044.00;;;21.07;49.01
65190;BME280;51777;53.570;9.984;2022-07-06T10:21:45;102059.22;;;20.30;50.83
65190;BME280;51777;53.570;9.984;2022-07-06T10:24:11;102057.72;;;19.67;51.43
65190;BME280;51777;53.570;9.984;2022-07-06T10:26:38;102050.22;;;19.08;52.98
65190;BME280;51777;53.570;9.984;2022-07-06T10:29:06;102051.13;;;18.60;54.77
65190;BME280;51777;53.570;9.984;2022-07-06T10:31:38;102055.09;;;18.32;57.48
65190;BME280;51777;53.570;9.984;2022-07-06T10:34:07;102051.81;;;17.89;58.78
65190;BME280;51777;53.570;9.984;2022-07-06T10:36:40;102052.94;;;17.44;60.32
65190;BME280;51777;53.570;9.984;2022-07-06T10:39:06;102047.78;;;17.18;61.77
65190;BME280;51777;53.570;9.984;2022-07-06T10:41:54;102050.50;;;17.00;64.17
65190;BME280;51777;53.570;9.984;2022-07-06T10:44:22;102041.53;;;16.77;65.77
65190;BME280;51777;53.570;9.984;2022-07-06T10:46:53;102044.16;;;16.59;66.41
65190;BME280;51777;53.570;9.984;2022-07-06T10:49:18;102041.34;;;16.53;66.40
65190;BME280;51777;53.570;9.984;2022-07-06T10:51:44;102034.78;;;16.49;66.58
65190;BME280;51777;53.570;9.984;2022-07-06T10:54:10;102036.28;;;16.51;68.68
65190;BME280;51777;53.570;9.984;2022-07-06T10:56:38;102038.72;;;16.70;69.88
65190;BME280;51777;53.570;9.984;2022-07-06T10:59:10;102038.13;;;16.85;68.08
65190;BME280;51777;53.570;9.984;2022-07-06T11:01:36;102029.75;;;17.07;68.04
65190;BME280;51777;53.570;9.984;2022-07-06T11:06:39;102024.16;;;17.28;65.66
65190;BME280;51777;53.570;9.984;2022-07-06T11:09:07;102029.06;;;17.31;65.52
65190;BME280;51777;53.570;9.984;2022-07-06T11:13:59;102024.63;;;17.74;64.68
65190;BME280;51777;53.570;9.984;2022-07-06T11:16:27;102026.94;;;18.09;63.57
65190;BME280;51777;53.570;9.984;2022-07-06T11:19:10;102029.78;;;20.87;55.81
65190;BME280;51777;53.570;9.984;2022-07-06T11:24:10;102031.13;;;20.83;56.01
65190;BME280;51777;53.570;9.984;2022-07-06T11:26:36;102031.78;;;20.70;54.17
65190;BME280;51777;53.570;9.984;2022-07-06T11:29:04;102031.41;;;22.33;51.03
65190;BME280;51777;53.570;9.984;2022-07-06T11:31:37;102037.94;;;23.60;48.92
65190;BME280;51777;53.570;9.984;2022-07-06T11:34:06;102042.22;;;23.07;48.28
65190;BME280;51777;53.570;9.984;2022-07-06T11:36:33;102028.13;;;21.88;50.34
65190;BME280;51777;53.570;9.984;2022-07-06T11:38:59;102032.78;;;21.14;53.39
65190;BME280;51777;53.570;9.984;2022-07-06T11:41:24;102028.06;;;20.65;55.04
65190;BME280;51777;53.570;9.984;2022-07-06T11:43:50;102022.09;;;19.73;57.20
65190;BME280;51777;53.570;9.984;2022-07-06T11:46:29;102021.84;;;19.20;59.27
65190;BME280;51777;53.570;9.984;2022-07-06T11:49:00;102021.56;;;19.07;59.74
65190;BME280;51777;53.570;9.984;2022-07-06T11:51:32;102015.38;;;19.39;59.37
65190;BME280;51777;53.570;9.984;2022-07-06T11:54:00;102004.81;;;19.78;57.79
65190;BME280;51777;53.570;9.984;2022-07-06T11:56:27;102013.03;;;20.88;55.05
65190;BME280;51777;53.570;9.984;2022-07-06T11:58:55;102026.19;;;23.69;48.43
65190;BME280;51777;53.570;9.984;2022-07-06T12:01:22;102021.69;;;24.69;43.77
65190;BME280;51777;53.570;9.984;2022-07-06T12:03:49;102026.50;;;26.50;38.03
65190;BME280;51777;53.570;9.984;2022-07-06T12:08:45;102020.91;;;29.47;33.67
65190;BME280;51777;53.570;9.984;2022-07-06T12:11:19;102024.38;;;30.31;31.42
65190;BME280;51777;53.570;9.984;2022-07-06T12:13:46;102025.13;;;30.65;29.99
65190;BME280;51777;53.570;9.984;2022-07-06T12:16:13;102011.69;;;30.05;29.97
65190;BME280;51777;53.570;9.984;2022-07-06T12:18:39;102011.38;;;28.94;31.69
65190;BME280;51777;53.570;9.984;2022-07-06T12:21:15;102013.00;;;28.83;31.82
65190;BME280;51777;53.570;9.984;2022-07-06T12:23:48;102005.66;;;27.08;33.72
65190;BME280;51777;53.570;9.984;2022-07-06T12:26:15;102009.78;;;26.86;34.70
65190;BME280;51777;53.570;9.984;2022-07-06T12:28:42;102007.97;;;29.10;30.47
65190;BME280;51777;53.570;9.984;2022-07-06T12:31:08;102013.81;;;31.07;26.88
65190;BME280;51777;53.570;9.984;2022-07-06T12:33:34;102007.66;;;30.19;27.56
65190;BME280;51777;53.570;9.984;2022-07-06T12:36:18;102002.69;;;28.87;29.75
65190;BME280;51777;53.570;9.984;2022-07-06T12:38:47;101987.28;;;27.67;31.97
65190;BME280;51777;53.570;9.984;2022-07-06T12:41:29;101998.06;;;26.93;33.35
65190;BME280;51777;53.570;9.984;2022-07-06T12:44:23;101999.84;;;26.81;34.48
65190;BME280;51777;53.570;9.984;2022-07-06T12:47:09;102017.00;;;27.99;32.13
65190;BME280;51777;53.570;9.984;2022-07-06T12:49:36;101992.16;;;27.51;32.37
65190;BME280;51777;53.570;9.984;2022-07-06T12:52:12;101986.25;;;26.34;35.03
65190;BME280;51777;53.570;9.984;2022-07-06T12:54:46;101990.69;;;25.34;36.69
65190;BME280;51777;53.570;9.984;2022-07-06T12:57:17;101979.13;;;24.77;37.36
65190;BME280;51777;53.570;9.984;2022-07-06T12:59:46;101985.31;;;24.51;38.03
65190;BME280;51777;53.570;9.984;2022-07-06T13:02:34;101975.72;;;24.70;37.67